createdAt,value
2023-04-28T00:00:36.478Z,99377.29
2023-04-28T00:03:03.683Z,99375.58
2023-04-28T00:05:30.778Z,99372.83
2023-04-28T00:07:57.773Z,99369.86
2023-04-28T00:10:24.717Z,99370.20
2023-04-28T00:12:51.627Z,99372.13
2023-04-28T00:15:18.520Z,99371.96
2023-04-28T00:17:45.360Z,99371.27
2023-04-28T00:20:12.542Z,99373.69
2023-04-28T00:22:39.426Z,99378.77
2023-04-28T00:25:06.957Z,99380.36
2023-04-28T00:27:34.510Z,99380.75
2023-04-28T00:30:01.622Z,99384.77
2023-04-28T00:32:28.699Z,99387.77
2023-04-28T00:34:57.372Z,99388.64
2023-04-28T00:37:24.281Z,99387.30
2023-04-28T00:39:57.647Z,99388.20
2023-04-28T00:42:24.637Z,99391.57
2023-04-28T00:44:51.465Z,99389.55
2023-04-28T00:47:18.722Z,99387.83
2023-04-28T00:49:45.813Z,99394.64
2023-04-28T00:52:12.642Z,99395.52
2023-04-28T00:54:39.617Z,99396.04
2023-04-28T00:57:07.094Z,99403.50
2023-04-28T00:59:33.919Z,99405.79
2023-04-28T01:02:01.197Z,99410.68
2023-04-28T01:04:28.834Z,99415.57
2023-04-28T01:06:56.299Z,99417.90
2023-04-28T01:09:23.201Z,99425.02
2023-04-28T01:11:50.715Z,99424.33
2023-04-28T01:14:29.988Z,99423.99
2023-04-28T01:16:57.055Z,99423.47
2023-04-28T01:19:24.161Z,99422.09
2023-04-28T01:21:51.933Z,99426.14
2023-04-28T01:24:22.795Z,99426.86
2023-04-28T01:26:50.095Z,99424.11
2023-04-28T01:29:16.993Z,99417.16
2023-04-28T01:31:43.989Z,99425.35
2023-04-28T01:34:10.952Z,99425.71
2023-04-28T01:36:38.025Z,99427.82
2023-04-28T01:39:05.225Z,99427.51
2023-04-28T01:41:35.985Z,99432.41
2023-04-28T01:44:05.192Z,99435.00
2023-04-28T01:46:32.125Z,99435.88
2023-04-28T01:48:59.033Z,99438.35
2023-04-28T01:51:27.146Z,99438.54
2023-04-28T01:53:54.479Z,99432.16
2023-04-28T01:56:21.411Z,99426.40
2023-04-28T01:58:49.208Z,99420.69
2023-04-28T02:01:16.316Z,99420.35
2023-04-28T02:03:44.334Z,99420.73
2023-04-28T02:06:11.512Z,99422.30
2023-04-28T02:08:38.396Z,99425.50
2023-04-28T02:11:05.914Z,99426.90
2023-04-28T02:13:32.787Z,99431.12
2023-04-28T02:16:02.769Z,99431.67
2023-04-28T02:18:29.629Z,99437.75
2023-04-28T02:21:11.896Z,99442.65
2023-04-28T02:23:39.649Z,99441.13
2023-04-28T02:26:06.655Z,99442.38
2023-04-28T02:28:33.601Z,99447.80
2023-04-28T02:31:07.924Z,99451.48
2023-04-28T02:33:35.062Z,99444.92
2023-04-28T02:36:03.166Z,99443.75
2023-04-28T02:38:30.070Z,99448.11
2023-04-28T02:41:01.107Z,99448.88
2023-04-28T02:43:32.012Z,99448.60
2023-04-28T02:45:58.938Z,99447.47
2023-04-28T02:48:25.957Z,99449.61
2023-04-28T02:50:53.301Z,99452.27
2023-04-28T02:53:20.950Z,99454.59
2023-04-28T02:55:48.189Z,99456.92
2023-04-28T02:58:15.220Z,99460.28
2023-04-28T03:00:42.073Z,99461.41
2023-04-28T03:03:09.081Z,99464.45
2023-04-28T03:05:36.159Z,99471.13
2023-04-28T03:08:03.004Z,99475.03
2023-04-28T03:10:29.848Z,99479.97
2023-04-28T03:12:56.732Z,99484.35
2023-04-28T03:15:23.660Z,99486.52
2023-04-28T03:17:50.644Z,99494.88
2023-04-28T03:20:18.086Z,99497.17
2023-04-28T03:22:44.944Z,99505.36
2023-04-28T03:25:12.444Z,99506.61
2023-04-28T03:27:46.543Z,99510.78
2023-04-28T03:30:14.224Z,99514.10
2023-04-28T03:32:41.382Z,99516.59
2023-04-28T03:35:08.848Z,99517.51
2023-04-28T03:37:35.970Z,99520.98
2023-04-28T03:40:03.403Z,99524.52
2023-04-28T03:42:36.262Z,99527.30
2023-04-28T03:45:11.358Z,99529.77
2023-04-28T03:47:38.307Z,99532.05
2023-04-28T03:50:06.421Z,99531.02
2023-04-28T03:52:33.253Z,99536.06
2023-04-28T03:55:00.195Z,99536.05
2023-04-28T03:57:27.191Z,99536.75
2023-04-28T03:59:54.180Z,99536.55
2023-04-28T04:02:21.179Z,99539.45
2023-04-28T04:04:49.137Z,99540.63
2023-04-28T04:07:16.461Z,99538.84
2023-04-28T04:09:43.321Z,99539.48
2023-04-28T04:12:10.263Z,99538.17
2023-04-28T04:14:37.206Z,99539.46
2023-04-28T04:17:04.297Z,99540.39
2023-04-28T04:19:31.655Z,99546.55
2023-04-28T04:21:58.543Z,99549.97
2023-04-28T04:24:25.767Z,99546.45
2023-04-28T04:26:53.014Z,99549.68
2023-04-28T04:29:28.333Z,99548.15
2023-04-28T04:31:55.404Z,99549.73
2023-04-28T04:34:22.253Z,99553.02
2023-04-28T04:36:49.297Z,99551.47
2023-04-28T04:39:16.223Z,99557.97
2023-04-28T04:41:43.062Z,99557.13
2023-04-28T04:44:24.082Z,99556.48
2023-04-28T04:46:51.241Z,99557.02
2023-04-28T04:49:18.345Z,99557.05
2023-04-28T04:51:45.444Z,99556.73
2023-04-28T04:54:12.526Z,99556.84
2023-04-28T04:56:39.997Z,99558.07
2023-04-28T04:59:07.332Z,99557.42
2023-04-28T05:01:57.463Z,99561.63
2023-04-28T05:04:24.470Z,99565.89
2023-04-28T05:06:52.831Z,99562.31
2023-04-28T05:09:19.760Z,99560.98
2023-04-28T05:11:46.665Z,99561.23
2023-04-28T05:14:13.615Z,99560.77
2023-04-28T05:16:42.128Z,99561.13
2023-04-28T05:19:11.930Z,99561.50
2023-04-28T05:21:38.796Z,99562.98
2023-04-28T05:24:06.037Z,99563.27
2023-04-28T05:26:33.161Z,99562.51
2023-04-28T05:29:04.970Z,99565.10
2023-04-28T05:31:31.918Z,99568.55
2023-04-28T05:33:59.025Z,99570.43
2023-04-28T05:36:26.761Z,99571.48
2023-04-28T05:38:53.604Z,99574.92
2023-04-28T05:41:20.949Z,99575.79
2023-04-28T05:43:51.114Z,99574.70
2023-04-28T05:46:30.067Z,99574.94
2023-04-28T05:48:58.922Z,99578.52
2023-04-28T05:51:27.368Z,99575.42
2023-04-28T05:53:54.360Z,99576.99
2023-04-28T05:56:21.459Z,99574.69
2023-04-28T05:58:50.685Z,99576.08
2023-04-28T06:01:18.096Z,99572.34
2023-04-28T06:03:46.613Z,99571.86
2023-04-28T06:06:13.783Z,99566.92
2023-04-28T06:08:40.978Z,99567.31
2023-04-28T06:11:07.844Z,99561.17
2023-04-28T06:13:34.948Z,99559.66
2023-04-28T06:16:03.667Z,99557.52
2023-04-28T06:18:32.998Z,99558.21
2023-04-28T06:21:01.434Z,99557.77
2023-04-28T06:23:28.313Z,99560.13
2023-04-28T06:25:55.249Z,99561.62
2023-04-28T06:28:22.090Z,99562.89
2023-04-28T06:30:49.546Z,99563.36
2023-04-28T06:33:16.472Z,99562.92
2023-04-28T06:35:43.352Z,99565.73
2023-04-28T06:38:10.201Z,99562.59
2023-04-28T06:40:37.450Z,99562.20
2023-04-28T06:43:06.541Z,99565.17
2023-04-28T06:45:38.081Z,99565.88
2023-04-28T06:48:05.527Z,99566.77
2023-04-28T06:50:32.514Z,99566.89
2023-04-28T06:52:59.635Z,99567.88
2023-04-28T06:55:29.717Z,99561.64
2023-04-28T06:57:58.577Z,99568.35
2023-04-28T07:00:25.605Z,99568.89
2023-04-28T07:02:52.849Z,99567.27
2023-04-28T07:05:20.122Z,99567.13
2023-04-28T07:07:47.680Z,99562.80
2023-04-28T07:10:15.900Z,99564.05
2023-04-28T07:12:42.761Z,99564.96
2023-04-28T07:15:10.477Z,99567.88
2023-04-28T07:17:38.197Z,99573.42
2023-04-28T07:20:06.956Z,99567.41
2023-04-28T07:22:33.800Z,99567.46
2023-04-28T07:25:00.716Z,99567.75
2023-04-28T07:27:27.657Z,99572.77
2023-04-28T07:29:54.538Z,99575.75
2023-04-28T07:32:21.988Z,99580.38
2023-04-28T07:34:48.892Z,99576.19
2023-04-28T07:37:16.602Z,99574.08
2023-04-28T07:39:43.464Z,99572.55
2023-04-28T07:42:10.422Z,99573.98
2023-04-28T07:44:37.535Z,99572.21
2023-04-28T07:47:04.470Z,99573.18
2023-04-28T07:49:31.520Z,99578.13
2023-04-28T07:51:58.513Z,99583.36
2023-04-28T07:54:25.355Z,99581.05
2023-04-28T07:56:52.276Z,99582.55
2023-04-28T07:59:19.168Z,99584.30
2023-04-28T08:01:46.116Z,99580.05
2023-04-28T08:04:13.163Z,99579.59
2023-04-28T08:06:40.663Z,99587.05
2023-04-28T08:09:08.757Z,99586.48
2023-04-28T08:11:35.608Z,99591.36
2023-04-28T08:14:03.595Z,99594.34
2023-04-28T08:16:31.051Z,99591.89
2023-04-28T08:18:59.029Z,99589.81
2023-04-28T08:21:27.583Z,99596.00
2023-04-28T08:23:54.473Z,99602.52
2023-04-28T08:26:21.360Z,99604.98
2023-04-28T08:28:48.259Z,99605.48
2023-04-28T08:31:15.232Z,99611.35
2023-04-28T08:33:44.887Z,99608.25
2023-04-28T08:36:18.245Z,99601.36
2023-04-28T08:38:45.707Z,99592.98
2023-04-28T08:41:14.991Z,99589.73
2023-04-28T08:43:43.384Z,99600.67
2023-04-28T08:46:10.833Z,99599.41
2023-04-28T08:48:42.857Z,99598.56
2023-04-28T08:51:09.806Z,99600.15
2023-04-28T08:53:57.343Z,99596.06
2023-04-28T08:56:25.277Z,99597.16
2023-04-28T08:58:52.500Z,99600.13
2023-04-28T09:01:19.380Z,99601.59
2023-04-28T09:03:47.973Z,99597.27
2023-04-28T09:06:15.117Z,99583.77
2023-04-28T09:08:42.073Z,99587.98
2023-04-28T09:11:10.538Z,99585.05
2023-04-28T09:13:37.537Z,99591.79
2023-04-28T09:16:04.723Z,99601.63
2023-04-28T09:18:34.566Z,99593.52
2023-04-28T09:21:09.385Z,99588.15
2023-04-28T09:23:48.336Z,99598.21
2023-04-28T09:26:15.313Z,99601.92
2023-04-28T09:28:42.170Z,99599.05
2023-04-28T09:31:29.366Z,99605.67
2023-04-28T09:34:02.818Z,99604.58
2023-04-28T09:36:30.817Z,99605.51
2023-04-28T09:38:58.280Z,99608.77
2023-04-28T09:41:40.615Z,99601.55
2023-04-28T09:44:15.529Z,99587.77
2023-04-28T09:46:44.796Z,99586.23
2023-04-28T09:49:12.389Z,99586.56
2023-04-28T09:51:39.531Z,99581.38
2023-04-28T09:54:06.740Z,99588.45
2023-04-28T09:56:35.073Z,99584.37
2023-04-28T09:59:02.231Z,99589.95
2023-04-28T10:01:34.034Z,99582.48
2023-04-28T10:04:02.824Z,99587.98
2023-04-28T10:06:30.384Z,99588.75
2023-04-28T10:08:58.916Z,99592.18
2023-04-28T10:11:25.981Z,99591.59
2023-04-28T10:13:53.565Z,99586.10
2023-04-28T10:16:20.629Z,99581.86
2023-04-28T10:18:47.883Z,99587.80
2023-04-28T10:21:18.079Z,99583.59
2023-04-28T10:23:48.138Z,99584.24
2023-04-28T10:26:16.488Z,99578.83
2023-04-28T10:28:50.777Z,99583.56
2023-04-28T10:31:21.533Z,99584.90
2023-04-28T10:33:48.802Z,99579.63
2023-04-28T10:36:47.740Z,99584.25
2023-04-28T10:39:15.418Z,99589.08
2023-04-28T10:41:42.517Z,99592.27
2023-04-28T10:44:28.429Z,99593.16
2023-04-28T10:47:04.617Z,99588.12
2023-04-28T10:50:01.353Z,99583.81
2023-04-28T10:52:40.961Z,99585.93
2023-04-28T10:55:27.585Z,99588.96
2023-04-28T10:58:16.840Z,99589.33
2023-04-28T11:00:45.493Z,99590.02
2023-04-28T11:04:06.234Z,99581.33
2023-04-28T11:06:37.513Z,99578.23
2023-04-28T11:09:20.071Z,99590.15
2023-04-28T11:12:06.088Z,99586.95
2023-04-28T11:14:37.273Z,99574.79
2023-04-28T11:17:05.929Z,99585.52
2023-04-28T11:19:41.773Z,99585.13
2023-04-28T11:22:15.318Z,99585.52
2023-04-28T11:24:42.185Z,99581.15
2023-04-28T11:27:09.028Z,99577.76
2023-04-28T11:29:37.722Z,99570.48
2023-04-28T11:32:05.960Z,99570.55
2023-04-28T11:34:33.348Z,99575.59
2023-04-28T11:37:00.342Z,99581.70
2023-04-28T11:39:30.765Z,99573.97
2023-04-28T11:41:58.601Z,99571.27
2023-04-28T11:44:27.620Z,99571.18
2023-04-28T11:47:00.891Z,99574.80
2023-04-28T11:49:46.983Z,99575.77
2023-04-28T11:52:14.205Z,99571.66
2023-04-28T11:54:44.191Z,99571.85
2023-04-28T11:57:18.477Z,99565.69
2023-04-28T11:59:46.632Z,99569.22
2023-04-28T12:02:14.020Z,99562.10
2023-04-28T12:04:42.393Z,99570.95
2023-04-28T12:07:16.765Z,99573.61
2023-04-28T12:09:48.419Z,99565.30
2023-04-28T12:12:22.973Z,99556.05
2023-04-28T12:15:06.312Z,99558.81
2023-04-28T12:17:34.068Z,99551.50
2023-04-28T12:20:11.833Z,99548.73
2023-04-28T12:22:49.242Z,99550.21
2023-04-28T12:25:17.631Z,99547.16
2023-04-28T12:28:04.470Z,99555.83
2023-04-28T12:30:33.514Z,99560.64
2023-04-28T12:33:00.452Z,99555.05
2023-04-28T12:35:28.362Z,99551.40
2023-04-28T12:37:56.352Z,99556.81
2023-04-28T12:40:24.118Z,99555.54
2023-04-28T12:42:51.287Z,99558.56
2023-04-28T12:45:18.392Z,99561.49
2023-04-28T12:47:45.274Z,99560.73
2023-04-28T12:50:12.310Z,99558.57
2023-04-28T12:52:39.262Z,99552.27
2023-04-28T12:55:06.627Z,99557.80
2023-04-28T12:57:33.758Z,99559.63
2023-04-28T13:00:00.614Z,99563.01
2023-04-28T13:02:28.592Z,99562.85
2023-04-28T13:04:55.871Z,99560.89
2023-04-28T13:07:22.927Z,99568.95
2023-04-28T13:09:49.847Z,99565.94
2023-04-28T13:12:16.765Z,99562.31
2023-04-28T13:14:44.953Z,99553.45
2023-04-28T13:17:12.580Z,99546.68
2023-04-28T13:19:40.782Z,99549.40
2023-04-28T13:22:09.328Z,99551.67
2023-04-28T13:24:36.292Z,99551.60
2023-04-28T13:27:04.185Z,99553.55
2023-04-28T13:29:31.242Z,99552.86
2023-04-28T13:31:58.109Z,99556.23
2023-04-28T13:34:25.025Z,99557.71
2023-04-28T13:36:54.354Z,99560.63
2023-04-28T13:39:22.239Z,99561.28
2023-04-28T13:41:49.640Z,99556.05
2023-04-28T13:44:16.925Z,99553.33
2023-04-28T13:46:43.789Z,99554.67
2023-04-28T13:49:10.719Z,99551.21
2023-04-28T13:51:37.841Z,99541.31
2023-04-28T13:54:08.261Z,99533.33
2023-04-28T13:56:36.549Z,99532.48
2023-04-28T13:59:04.489Z,99529.45
2023-04-28T14:01:31.561Z,99530.08
2023-04-28T14:03:58.643Z,99537.06
2023-04-28T14:06:27.485Z,99534.13
2023-04-28T14:08:54.390Z,99534.00
2023-04-28T14:11:21.622Z,99535.59
2023-04-28T14:13:48.494Z,99541.10
2023-04-28T14:16:15.459Z,99548.20
2023-04-28T14:18:42.289Z,99543.05
2023-04-28T14:21:09.420Z,99539.60
2023-04-28T14:23:36.817Z,99539.18
2023-04-28T14:26:03.908Z,99534.39
2023-04-28T14:28:30.868Z,99535.25
2023-04-28T14:30:57.831Z,99534.08
2023-04-28T14:33:24.841Z,99529.25
2023-04-28T14:35:51.738Z,99529.49
2023-04-28T14:38:18.724Z,99528.45
2023-04-28T14:40:45.967Z,99525.65
2023-04-28T14:43:14.131Z,99531.92
2023-04-28T14:45:41.033Z,99531.33
2023-04-28T14:48:10.708Z,99534.95
2023-04-28T14:50:37.849Z,99528.86
2023-04-28T14:53:07.792Z,99536.33
2023-04-28T14:55:34.926Z,99536.92
2023-04-28T14:58:02.125Z,99539.48
2023-04-28T15:00:29.430Z,99540.30
2023-04-28T15:02:56.394Z,99542.50
2023-04-28T15:05:23.449Z,99546.16
2023-04-28T15:07:50.500Z,99547.52
2023-04-28T15:10:18.169Z,99551.93
2023-04-28T15:12:45.025Z,99548.84
2023-04-28T15:15:11.959Z,99550.44
2023-04-28T15:17:39.163Z,99554.45
2023-04-28T15:20:08.211Z,99550.63
2023-04-28T15:22:36.549Z,99548.64
2023-04-28T15:25:03.531Z,99549.92
2023-04-28T15:27:30.375Z,99548.85
2023-04-28T15:29:57.542Z,99553.45
2023-04-28T15:32:24.767Z,99552.73
2023-04-28T15:34:51.959Z,99551.92
2023-04-28T15:37:37.836Z,99555.50
2023-04-28T15:40:09.387Z,99552.49
2023-04-28T15:42:37.691Z,99554.20
2023-04-28T15:45:05.912Z,99552.89
2023-04-28T15:47:33.143Z,99556.59
2023-04-28T15:50:00.216Z,99560.85
2023-04-28T15:52:27.664Z,99563.80
2023-04-28T15:54:55.685Z,99560.13
2023-04-28T15:57:22.719Z,99560.95
2023-04-28T15:59:51.799Z,99556.15
2023-04-28T16:02:19.097Z,99560.36
2023-04-28T16:04:46.991Z,99566.16
2023-04-28T16:07:14.251Z,99562.92
2023-04-28T16:09:41.160Z,99562.02
2023-04-28T16:12:08.620Z,99567.86
2023-04-28T16:14:36.561Z,99571.08
2023-04-28T16:17:03.579Z,99569.94
2023-04-28T16:19:30.683Z,99565.65
2023-04-28T16:21:58.138Z,99570.23
2023-04-28T16:24:25.974Z,99570.30
2023-04-28T16:26:53.308Z,99568.55
2023-04-28T16:29:20.369Z,99569.22
2023-04-28T16:31:47.250Z,99570.98
2023-04-28T16:34:14.180Z,99572.88
2023-04-28T16:36:41.484Z,99576.63
2023-04-28T16:39:09.514Z,99576.02
2023-04-28T16:41:37.508Z,99575.54
2023-04-28T16:44:04.416Z,99574.33
2023-04-28T16:46:31.557Z,99575.85
2023-04-28T16:48:58.830Z,99580.37
2023-04-28T16:51:25.728Z,99576.78
2023-04-28T16:53:52.615Z,99577.79
2023-04-28T16:56:19.511Z,99582.67
2023-04-28T16:58:46.342Z,99582.41
2023-04-28T17:01:13.319Z,99584.58
2023-04-28T17:03:42.264Z,99585.26
2023-04-28T17:06:09.363Z,99586.66
2023-04-28T17:08:36.640Z,99593.77
2023-04-28T17:11:06.772Z,99596.34
2023-04-28T17:13:34.243Z,99599.64
2023-04-28T17:16:01.347Z,99600.80
2023-04-28T17:18:28.304Z,99598.44
2023-04-28T17:20:56.048Z,99603.82
2023-04-28T17:23:22.883Z,99606.02
2023-04-28T17:25:49.733Z,99612.93
2023-04-28T17:28:16.695Z,99608.27
2023-04-28T17:30:47.096Z,99610.84
2023-04-28T17:33:15.646Z,99611.67
2023-04-28T17:35:42.486Z,99616.00
2023-04-28T17:38:09.326Z,99617.75
2023-04-28T17:40:36.935Z,99622.09
2023-04-28T17:43:04.655Z,99623.77
2023-04-28T17:45:31.832Z,99621.26
2023-04-28T17:48:00.866Z,99619.83
2023-04-28T17:50:27.953Z,99620.64
2023-04-28T17:52:55.184Z,99623.56
2023-04-28T17:55:22.376Z,99625.36
2023-04-28T17:57:49.217Z,99621.64
2023-04-28T18:00:16.194Z,99624.02
2023-04-28T18:02:43.097Z,99625.83
2023-04-28T18:05:10.174Z,99626.63
2023-04-28T18:07:37.854Z,99630.93
2023-04-28T18:10:04.895Z,99633.30
2023-04-28T18:12:31.914Z,99632.55
2023-04-28T18:14:58.788Z,99634.58
2023-04-28T18:17:26.331Z,99636.59
2023-04-28T18:19:56.886Z,99637.47
2023-04-28T18:22:24.078Z,99635.84
2023-04-28T18:24:51.328Z,99635.07
2023-04-28T18:27:19.089Z,99625.05
2023-04-28T18:29:45.889Z,99624.29
2023-04-28T18:32:14.568Z,99623.88
2023-04-28T18:34:43.595Z,99624.52
2023-04-28T18:37:10.728Z,99626.69
2023-04-28T18:39:37.858Z,99631.48
2023-04-28T18:42:04.854Z,99626.17
2023-04-28T18:44:32.007Z,99628.34
2023-04-28T18:47:00.114Z,99630.85
2023-04-28T18:49:27.137Z,99633.20
2023-04-28T18:51:54.082Z,99623.83
2023-04-28T18:54:21.014Z,99623.03
2023-04-28T18:56:52.646Z,99624.69
2023-04-28T18:59:19.435Z,99624.76
2023-04-28T19:01:47.378Z,99626.36
2023-04-28T19:04:14.935Z,99628.01
2023-04-28T19:06:41.870Z,99626.17
2023-04-28T19:09:08.821Z,99627.45
2023-04-28T19:11:35.659Z,99631.02
2023-04-28T19:14:02.513Z,99631.43
2023-04-28T19:16:29.479Z,99632.26
2023-04-28T19:18:56.657Z,99637.23
2023-04-28T19:21:23.593Z,99638.89
2023-04-28T19:23:50.449Z,99636.55
2023-04-28T19:26:17.421Z,99639.39
2023-04-28T19:28:44.305Z,99638.94
2023-04-28T19:31:11.429Z,99643.87
2023-04-28T19:33:38.275Z,99646.02
2023-04-28T19:36:07.395Z,99653.05
2023-04-28T19:38:35.523Z,99654.68
2023-04-28T19:41:02.693Z,99655.42
2023-04-28T19:43:29.977Z,99652.15
2023-04-28T19:45:57.441Z,99650.81
2023-04-28T19:48:26.335Z,99648.09
2023-04-28T19:50:53.399Z,99648.52
2023-04-28T19:53:20.269Z,99645.98
2023-04-28T19:55:47.497Z,99648.17
2023-04-28T19:58:15.154Z,99649.47
2023-04-28T20:00:42.099Z,99650.77
2023-04-28T20:03:09.499Z,99646.17
2023-04-28T20:05:39.618Z,99644.87
2023-04-28T20:08:06.619Z,99644.10
2023-04-28T20:10:33.516Z,99647.83
2023-04-28T20:13:00.399Z,99646.50
2023-04-28T20:15:27.259Z,99645.88
2023-04-28T20:17:55.242Z,99647.84
2023-04-28T20:20:22.574Z,99650.50
2023-04-28T20:22:50.814Z,99647.23
2023-04-28T20:25:17.791Z,99650.60
2023-04-28T20:27:47.017Z,99651.71
2023-04-28T20:30:14.539Z,99650.92
2023-04-28T20:32:41.415Z,99647.17
2023-04-28T20:35:08.651Z,99651.62
2023-04-28T20:37:35.633Z,99653.25
2023-04-28T20:40:03.380Z,99660.48
2023-04-28T20:42:30.170Z,99660.89
2023-04-28T20:44:57.523Z,99665.33
2023-04-28T20:47:24.883Z,99666.43
2023-04-28T20:49:51.854Z,99670.30
2023-04-28T20:52:19.016Z,99669.83
2023-04-28T20:54:47.024Z,99671.97
2023-04-28T20:57:13.843Z,99673.27
2023-04-28T20:59:40.855Z,99671.07
2023-04-28T21:02:07.895Z,99672.70
2023-04-28T21:04:34.921Z,99672.05
2023-04-28T21:07:01.742Z,99673.16
2023-04-28T21:09:28.776Z,99675.66
2023-04-28T21:11:55.805Z,99675.20
2023-04-28T21:14:22.650Z,99677.16
2023-04-28T21:16:49.535Z,99678.10
2023-04-28T21:19:17.472Z,99674.13
2023-04-28T21:21:44.325Z,99668.28
2023-04-28T21:24:11.172Z,99672.33
2023-04-28T21:26:38.030Z,99669.96
2023-04-28T21:29:04.907Z,99668.09
2023-04-28T21:31:31.805Z,99670.06
2023-04-28T21:33:58.954Z,99671.31
2023-04-28T21:36:25.800Z,99669.94
2023-04-28T21:38:52.644Z,99665.79
2023-04-28T21:41:20.501Z,99663.76
2023-04-28T21:43:47.384Z,99662.78
2023-04-28T21:46:14.330Z,99654.83
2023-04-28T21:48:41.237Z,99657.14
2023-04-28T21:51:08.108Z,99655.45
2023-04-28T21:53:34.937Z,99653.27
2023-04-28T21:56:01.800Z,99658.94
2023-04-28T21:58:28.642Z,99656.94
2023-04-28T22:00:55.583Z,99656.13
2023-04-28T22:03:22.996Z,99660.56
2023-04-28T22:05:50.262Z,99657.11
2023-04-28T22:08:17.296Z,99661.01
2023-04-28T22:10:45.720Z,99661.02
2023-04-28T22:13:13.056Z,99654.89
2023-04-28T22:15:40.142Z,99655.63
2023-04-28T22:18:08.438Z,99651.48
2023-04-28T22:20:36.074Z,99645.95
2023-04-28T22:23:02.979Z,99645.48
2023-04-28T22:25:29.836Z,99646.75
2023-04-28T22:27:56.751Z,99645.90
2023-04-28T22:30:25.838Z,99644.36
2023-04-28T22:32:53.482Z,99642.14
2023-04-28T22:35:20.514Z,99639.41
2023-04-28T22:37:47.403Z,99644.48
2023-04-28T22:40:14.309Z,99645.39
2023-04-28T22:42:41.801Z,99642.34
2023-04-28T22:45:10.680Z,99641.36
2023-04-28T22:47:38.660Z,99642.29
2023-04-28T22:50:08.059Z,99643.20
2023-04-28T22:52:35.209Z,99642.55
2023-04-28T22:55:02.064Z,99638.79
2023-04-28T22:57:28.917Z,99640.92
2023-04-28T22:59:56.201Z,99641.69
2023-04-28T23:02:23.506Z,99637.41
2023-04-28T23:04:51.179Z,99635.73
2023-04-28T23:07:18.228Z,99633.90
2023-04-28T23:09:45.035Z,99625.96
2023-04-28T23:12:11.919Z,99620.45
2023-04-28T23:14:38.858Z,99615.65
2023-04-28T23:17:05.708Z,99618.33
2023-04-28T23:19:32.740Z,99615.27
2023-04-28T23:21:59.728Z,99617.05
2023-04-28T23:24:27.424Z,99615.33
2023-04-28T23:26:54.517Z,99613.27
2023-04-28T23:29:21.523Z,99612.14
2023-04-28T23:31:52.704Z,99610.80
2023-04-28T23:34:19.645Z,99610.00
2023-04-28T23:36:46.510Z,99615.09
2023-04-28T23:39:13.706Z,99620.54
2023-04-28T23:41:41.188Z,99622.86
2023-04-28T23:44:08.431Z,99625.69
2023-04-28T23:46:35.289Z,99627.80
2023-04-28T23:49:02.287Z,99627.66
2023-04-28T23:51:29.159Z,99625.45
2023-04-28T23:53:55.978Z,99624.63
2023-04-28T23:56:22.834Z,99621.71
2023-04-28T23:58:49.947Z,99622.44
